createdAt,value
2018-11-23T00:00:40.079Z,2.55
2018-11-23T00:05:42.409Z,2.55
2018-11-23T00:10:59.644Z,2.53
2018-11-23T00:16:01.955Z,2.53
2018-11-23T00:21:04.625Z,2.54
2018-11-23T00:26:06.912Z,2.53
2018-11-23T00:31:09.229Z,2.55
2018-11-23T00:36:11.631Z,2.56
2018-11-23T00:41:13.984Z,2.57
2018-11-23T00:46:16.367Z,2.56
2018-11-23T00:51:18.661Z,2.57
2018-11-23T00:56:20.938Z,2.59
2018-11-23T01:01:23.228Z,2.60
2018-11-23T01:06:25.558Z,2.59
2018-11-23T01:11:27.832Z,2.59
2018-11-23T01:16:30.106Z,2.62
2018-11-23T01:21:32.482Z,2.60
2018-11-23T01:26:34.879Z,2.64
2018-11-23T01:31:37.210Z,2.63
2018-11-23T01:36:39.500Z,2.62
2018-11-23T01:41:41.786Z,2.59
2018-11-23T01:46:44.134Z,2.60
2018-11-23T01:51:46.503Z,2.59
2018-11-23T01:56:48.809Z,2.60
2018-11-23T02:01:51.209Z,2.63
2018-11-23T02:06:53.693Z,2.58
2018-11-23T02:11:55.946Z,2.60
2018-11-23T02:16:58.215Z,2.60
2018-11-23T02:22:00.537Z,2.64
2018-11-23T02:27:02.804Z,2.62
2018-11-23T02:32:05.344Z,2.64
2018-11-23T02:37:07.705Z,2.66
2018-11-23T02:42:09.976Z,2.65
2018-11-23T02:47:12.241Z,2.66
2018-11-23T02:52:15.300Z,2.71
2018-11-23T02:57:17.613Z,2.74
2018-11-23T03:02:19.892Z,2.75
2018-11-23T03:07:22.154Z,2.75
2018-11-23T03:12:24.452Z,2.75
2018-11-23T03:17:26.736Z,2.74
2018-11-23T03:22:29.172Z,2.73
2018-11-23T03:27:31.440Z,2.74
2018-11-23T03:32:33.740Z,2.69
2018-11-23T03:37:36.187Z,2.72
2018-11-23T03:42:38.570Z,2.69
2018-11-23T03:47:41.579Z,2.69
2018-11-23T03:52:44.270Z,2.68
2018-11-23T03:57:46.560Z,2.69
2018-11-23T04:02:49.476Z,2.70
2018-11-23T04:07:51.745Z,2.72
2018-11-23T04:12:54.140Z,2.73
2018-11-23T04:17:56.528Z,2.73
2018-11-23T04:22:58.911Z,2.73
2018-11-23T04:28:01.291Z,2.74
2018-11-23T04:33:04.203Z,2.75
2018-11-23T04:38:07.755Z,2.75
2018-11-23T04:43:10.050Z,2.74
2018-11-23T04:48:12.345Z,2.75
2018-11-23T04:53:14.883Z,2.75
2018-11-23T04:58:17.169Z,2.71
2018-11-23T05:03:19.552Z,2.69
2018-11-23T05:08:21.816Z,2.66
2018-11-23T05:13:24.206Z,2.67
2018-11-23T05:18:26.490Z,2.66
2018-11-23T05:23:28.806Z,2.67
2018-11-23T05:28:31.147Z,2.67
2018-11-23T05:33:33.470Z,2.64
2018-11-23T05:38:36.780Z,2.57
2018-11-23T05:43:39.076Z,2.50
2018-11-23T05:48:41.364Z,2.45
2018-11-23T05:53:43.752Z,2.36
2018-11-23T05:58:46.022Z,2.28
2018-11-23T06:03:48.296Z,2.20
2018-11-23T06:08:50.990Z,2.19
2018-11-23T06:13:53.304Z,2.11
2018-11-23T06:18:55.764Z,2.07
2018-11-23T06:23:58.096Z,1.99
2018-11-23T06:29:00.466Z,1.92
2018-11-23T06:34:02.754Z,1.81
2018-11-23T06:39:07.405Z,1.72
2018-11-23T06:44:09.736Z,1.61
2018-11-23T06:49:12.017Z,1.54
2018-11-23T06:54:14.605Z,1.46
2018-11-23T06:59:16.719Z,1.43
2018-11-23T07:04:19.029Z,1.32
2018-11-23T07:09:21.307Z,1.34
2018-11-23T07:14:23.579Z,1.35
2018-11-23T07:19:25.964Z,1.36
2018-11-23T07:24:28.394Z,1.32
2018-11-23T07:29:30.672Z,1.34
2018-11-23T07:34:32.986Z,1.37
2018-11-23T07:39:46.864Z,1.38
2018-11-23T07:44:49.200Z,1.43
2018-11-23T07:49:51.546Z,1.51
2018-11-23T07:54:53.908Z,1.56
2018-11-23T07:59:56.197Z,1.62
2018-11-23T08:04:58.487Z,1.68
2018-11-23T08:10:00.296Z,1.75
2018-11-23T08:15:02.648Z,1.84
2018-11-23T08:20:05.633Z,1.91
2018-11-23T08:25:08.908Z,1.99
2018-11-23T08:30:30.486Z,2.04
2018-11-23T08:35:32.857Z,2.13
2018-11-23T08:40:35.173Z,2.21
2018-11-23T08:45:37.461Z,2.27
2018-11-23T08:50:39.735Z,2.36
2018-11-23T08:55:42.116Z,2.48
2018-11-23T09:00:44.409Z,2.71
2018-11-23T09:05:46.697Z,2.84
2018-11-23T09:10:49.046Z,2.92
2018-11-23T09:15:51.342Z,3.11
2018-11-23T09:20:53.942Z,3.20
2018-11-23T09:25:56.287Z,3.31
2018-11-23T09:30:58.696Z,3.49
2018-11-23T09:36:00.966Z,3.58
2018-11-23T09:41:03.312Z,3.62
2018-11-23T09:46:05.998Z,3.62
2018-11-23T09:51:08.358Z,3.62
2018-11-23T09:56:10.786Z,3.56
2018-11-23T10:01:13.075Z,3.40
2018-11-23T10:06:15.356Z,3.30
2018-11-23T10:11:17.651Z,3.18
2018-11-23T10:16:20.296Z,3.05
2018-11-23T10:21:22.562Z,3.15
2018-11-23T10:26:24.923Z,3.27
2018-11-23T10:31:27.233Z,3.31
2018-11-23T10:36:29.538Z,3.32
2018-11-23T10:41:31.833Z,3.33
2018-11-23T10:46:34.145Z,3.43
2018-11-23T10:51:36.706Z,3.47
2018-11-23T10:56:39.106Z,3.55
2018-11-23T11:01:46.976Z,3.57
2018-11-23T11:06:49.931Z,3.70
2018-11-23T11:11:52.203Z,3.66
2018-11-23T11:16:54.478Z,3.71
2018-11-23T11:21:56.785Z,3.84
2018-11-23T11:26:59.377Z,3.98
2018-11-23T11:32:01.716Z,3.92
2018-11-23T11:37:04.254Z,4.01
2018-11-23T11:42:07.789Z,4.26
2018-11-23T11:47:10.244Z,4.25
2018-11-23T11:52:12.559Z,4.41
2018-11-23T11:57:15.047Z,4.52
2018-11-23T12:02:17.376Z,4.58
2018-11-23T12:07:19.642Z,4.67
2018-11-23T12:12:21.952Z,4.54
2018-11-23T12:17:24.305Z,4.54
2018-11-23T12:22:26.595Z,4.47
2018-11-23T12:27:29.500Z,4.66
2018-11-23T12:32:31.449Z,4.59
2018-11-23T12:37:33.767Z,4.87
2018-11-23T12:42:36.101Z,4.76
2018-11-23T12:47:38.637Z,4.99
2018-11-23T12:52:40.942Z,5.16
2018-11-23T12:57:43.551Z,5.32
2018-11-23T13:02:47.020Z,5.54
2018-11-23T13:07:50.106Z,5.42
2018-11-23T13:12:52.901Z,5.17
2018-11-23T13:17:55.805Z,5.31
2018-11-23T13:22:58.123Z,5.29
2018-11-23T13:28:00.681Z,5.14
2018-11-23T13:33:03.180Z,5.39
2018-11-23T13:38:05.480Z,5.31
2018-11-23T13:43:07.779Z,5.40
2018-11-23T13:48:10.075Z,5.72
2018-11-23T13:53:13.493Z,5.84
2018-11-23T13:58:15.836Z,5.68
2018-11-23T14:03:18.113Z,6.19
2018-11-23T14:08:20.557Z,5.87
2018-11-23T14:13:22.859Z,5.85
2018-11-23T14:18:25.248Z,6.06
2018-11-23T14:23:27.648Z,5.90
2018-11-23T14:28:30.029Z,6.21
2018-11-23T14:33:33.513Z,5.91
2018-11-23T14:38:36.357Z,5.65
2018-11-23T14:43:38.686Z,5.74
2018-11-23T14:48:41.168Z,5.52
2018-11-23T14:53:43.513Z,5.47
2018-11-23T14:58:46.153Z,5.21
2018-11-23T15:03:49.184Z,5.03
2018-11-23T15:08:52.061Z,4.77
2018-11-23T15:13:54.521Z,4.55
2018-11-23T15:18:56.880Z,4.44
2018-11-23T15:24:00.922Z,4.27
2018-11-23T15:29:02.594Z,4.12
2018-11-23T15:34:05.332Z,3.98
2018-11-23T15:39:09.777Z,3.86
2018-11-23T15:44:12.097Z,3.75
2018-11-23T15:49:14.484Z,3.65
2018-11-23T15:54:16.837Z,3.53
2018-11-23T15:59:20.172Z,3.40
2018-11-23T16:04:25.160Z,3.34
2018-11-23T16:09:28.219Z,3.27
2018-11-23T16:14:32.633Z,3.21
2018-11-23T16:19:35.040Z,3.10
2018-11-23T16:24:37.674Z,3.01
2018-11-23T16:29:40.118Z,2.98
2018-11-23T16:34:42.878Z,2.99
2018-11-23T16:39:45.463Z,2.99
2018-11-23T16:44:47.827Z,2.97
2018-11-23T16:49:50.452Z,2.99
2018-11-23T16:54:53.157Z,3.02
2018-11-23T16:59:57.106Z,3.02
2018-11-23T17:04:59.399Z,2.95
2018-11-23T17:10:02.260Z,2.89
2018-11-23T17:15:05.877Z,2.83
2018-11-23T17:20:11.359Z,2.84
2018-11-23T17:25:15.175Z,2.84
2018-11-23T17:30:23.123Z,2.86
2018-11-23T17:35:25.604Z,2.86
2018-11-23T17:40:29.684Z,2.82
2018-11-23T17:45:32.553Z,2.81
2018-11-23T17:50:36.044Z,2.82
2018-11-23T17:55:38.439Z,2.79
2018-11-23T18:00:41.712Z,2.75
2018-11-23T18:05:44.067Z,2.70
2018-11-23T18:10:46.384Z,2.70
2018-11-23T18:15:48.784Z,2.70
2018-11-23T18:20:51.139Z,2.68
2018-11-23T18:25:53.527Z,2.65
2018-11-23T18:30:55.963Z,2.64
2018-11-23T18:35:58.504Z,2.62
2018-11-23T18:41:01.330Z,2.62
2018-11-23T18:46:03.776Z,2.57
2018-11-23T18:51:06.159Z,2.55
2018-11-23T18:56:09.474Z,2.42
2018-11-23T19:01:12.204Z,2.31
2018-11-23T19:06:14.522Z,2.28
2018-11-23T19:11:16.960Z,2.26
2018-11-23T19:16:19.264Z,2.26
2018-11-23T19:21:22.322Z,2.25
2018-11-23T19:26:24.725Z,2.25
2018-11-23T19:31:27.424Z,2.23
2018-11-23T19:36:29.962Z,2.18
2018-11-23T19:41:32.461Z,2.12
2018-11-23T19:46:34.805Z,2.08
2018-11-23T19:51:37.121Z,2.04
2018-11-23T19:56:39.452Z,2.08
2018-11-23T20:01:41.850Z,2.06
2018-11-23T20:06:44.600Z,2.06
2018-11-23T20:11:47.021Z,2.09
2018-11-23T20:16:49.420Z,2.11
2018-11-23T20:21:51.818Z,2.01
2018-11-23T20:26:54.460Z,1.85
2018-11-23T20:31:57.488Z,1.73
2018-11-23T20:37:00.011Z,1.75
2018-11-23T20:42:02.410Z,1.77
2018-11-23T20:47:05.121Z,1.78
2018-11-23T20:52:07.495Z,1.69
2018-11-23T20:57:09.836Z,1.68
2018-11-23T21:02:12.866Z,1.70
2018-11-23T21:07:15.284Z,1.70
2018-11-23T21:12:18.488Z,1.69
2018-11-23T21:17:20.850Z,1.72
2018-11-23T21:22:23.239Z,1.66
2018-11-23T21:27:25.535Z,1.59
2018-11-23T21:32:28.012Z,1.59
2018-11-23T21:37:30.482Z,1.55
2018-11-23T21:42:32.912Z,1.52
2018-11-23T21:47:35.290Z,1.49
2018-11-23T21:52:37.655Z,1.41
2018-11-23T21:57:39.997Z,1.43
2018-11-23T22:02:43.165Z,1.40
2018-11-23T22:07:45.656Z,1.40
2018-11-23T22:12:48.107Z,1.35
2018-11-23T22:17:51.841Z,1.30
2018-11-23T22:22:54.212Z,1.23
2018-11-23T22:27:56.664Z,1.10
2018-11-23T22:32:59.265Z,1.14
2018-11-23T22:38:01.628Z,1.08
2018-11-23T22:43:04.253Z,1.02
2018-11-23T22:48:06.870Z,0.99
2018-11-23T22:53:09.213Z,0.93
2018-11-23T22:58:11.626Z,0.90
2018-11-23T23:03:14.086Z,0.92
2018-11-23T23:08:16.437Z,0.89
2018-11-23T23:13:19.580Z,0.91
2018-11-23T23:18:22.057Z,0.84
2018-11-23T23:23:24.456Z,0.78
2018-11-23T23:28:27.460Z,0.72
2018-11-23T23:33:30.074Z,0.68
2018-11-23T23:38:32.448Z,0.67
2018-11-23T23:43:34.749Z,0.66
2018-11-23T23:48:37.140Z,0.52
2018-11-23T23:53:39.458Z,0.53
2018-11-23T23:58:41.798Z,0.50
